Emerson, Arkansas
Current Conditions -  °F | °C
As of 4:17 AM on Sunday 23 Nov 2014 (Local Time) from KELD Reporting Station
Haze Haze  
Wind Chill: 58°   Ceiling: 400
Heat Index: 58°   Visibility: 2.5mi
Dew Point: 58°   Wind: 6mph
Humidity: 100%   Direction: 130°SE
Pressure: 29.69"   Gusts: NA
Location:  33.1°N, 93.19°W
Report Text: KELD 231017Z AUTO 13005KT 2 1/2SM BR OVC004 14/14 A2969 RMK AO2 T01440144
Loading
Personal Weather Stations






























Interactive Weather Map New forecast layout! Learn more

10-Day Weather Forecast

Advertisements
Track Severe Weather on mobile